Impacts TAF Board
For situational awareness. Not to be used for flight planning purposes.
IDs:

KPDX - Portland Intl Arpt, OR, US

Issued at 0850 UTC 28 Sep 2021
Updated at 0958 UTC 28 Sep 2021
Potential Impact None Slight Moderate High
Time0953Z 28/10Z 28/11Z 28/12Z 28/13Z 28/14Z 28/15Z 28/16Z 28/17Z 28/18Z 28/19Z 28/20Z 28/21Z 28/22Z>>
Type OBS PRVL PRVL PRVL PRVL PRVL PRVL PRVL PRVL PRVL PRVL PRVL PRVL PRVL
VIS 10 >6 >6 >6 >6 >6 >6 >6 >6 >6 >6 >6 >6 >6
CIG 14 25 25 35 35 35 35 35 25 25 40 40 40 40
Cover OVC OVC OVC BKN BKN BKN BKN BKN BKN BKN BKN BKN BKN BKN
FltCat MVFR MVFR MVFR VFR VFR VFR VFR VFR MVFR MVFR VFR VFR VFR VFR
WX -- -SHRA -SHRA -SHRA -SHRA -SHRA -SHRA -SHRA -SHRA -SHRA -SHRA -SHRA -SHRA -SHRA
WDir 200 190 190 180 180 180 180 180 190 190 200 200 200 200
WSpd 11 7 7 9 9 9 9 9 7 7 7 7 7 7
WGst -- -- -- -- -- -- -- -- -- -- -- -- -- --
Raw TAF
KPDX 280850Z 2809/2906 19007KT P6SM -SHRA SCT025 OVC040
  FM281000 19007KT P6SM -SHRA BKN025 OVC040
  FM281200 18009KT P6SM -SHRA SCT015 BKN035
  FM281630 19007KT P6SM -SHRA BKN025 BKN035
  FM281830 20007KT P6SM -SHRA SCT025 BKN040
  FM290400 23004KT P6SM SCT040


Raw METAR
KPDX 280953Z 20011KT 10SM BKN014 OVC048 13/10 A3000 RMK AO2 RAB0859E08 SLP156 P0000 T01280100
KPDX 280853Z 19015G18KT 10SM FEW020 BKN060 OVC075 13/11 A2998 RMK AO2 RAE08 SLP151 P0001 60007 T01280106 53010
KPDX 280753Z 18006KT 10SM -RA FEW020 OVC065 13/11 A2997 RMK AO2 RAB04 SLP147 P0006 T01280106 401830128
KPDX 280653Z 20009KT 10SM FEW020 BKN085 BKN110 13/11 A2996 RMK AO2 SLP145 T01330106

METAR Board
Radar Display
Forecast Discussion
For situational awareness. Not to be used for flight planning purposes.